sensor_id;sensor_type;location;lat;lon;timestamp;pressure;altitude;pressure_sealevel;temperature;humidity
77153;BME280;66124;51.146;17.072;2023-05-20T00:02:17;101139.35;;;12.71;75.98
77153;BME280;66124;51.146;17.072;2023-05-20T00:04:47;101142.96;;;12.71;75.70
77153;BME280;66124;51.146;17.072;2023-05-20T00:07:16;101133.94;;;12.71;75.87
77153;BME280;66124;51.146;17.072;2023-05-20T00:09:45;101132.84;;;12.71;75.93
77153;BME280;66124;51.146;17.072;2023-05-20T00:12:15;101133.80;;;12.72;75.87
77153;BME280;66124;51.146;17.072;2023-05-20T00:14:45;101129.33;;;12.73;75.93
77153;BME280;66124;51.146;17.072;2023-05-20T00:17:14;101132.44;;;12.74;75.91
77153;BME280;66124;51.146;17.072;2023-05-20T00:19:43;101133.92;;;12.73;76.05
77153;BME280;66124;51.146;17.072;2023-05-20T00:22:11;101136.99;;;12.72;75.99
77153;BME280;66124;51.146;17.072;2023-05-20T00:24:39;101141.11;;;12.72;76.06
77153;BME280;66124;51.146;17.072;2023-05-20T00:32:16;101143.59;;;12.72;76.08
77153;BME280;66124;51.146;17.072;2023-05-20T00:34:56;101141.24;;;12.70;75.83
77153;BME280;66124;51.146;17.072;2023-05-20T00:37:25;101141.02;;;12.71;76.13
77153;BME280;66124;51.146;17.072;2023-05-20T00:39:55;101140.74;;;12.70;75.85
77153;BME280;66124;51.146;17.072;2023-05-20T00:42:26;101138.80;;;12.70;75.84
77153;BME280;66124;51.146;17.072;2023-05-20T00:44:55;101133.30;;;12.70;76.27
77153;BME280;66124;51.146;17.072;2023-05-20T00:47:27;101131.89;;;12.69;76.16
77153;BME280;66124;51.146;17.072;2023-05-20T00:49:57;101133.30;;;12.67;75.95
77153;BME280;66124;51.146;17.072;2023-05-20T00:52:30;101133.52;;;12.66;75.82
77153;BME280;66124;51.146;17.072;2023-05-20T00:55:00;101133.16;;;12.64;76.04
77153;BME280;66124;51.146;17.072;2023-05-20T00:57:30;101133.72;;;12.63;75.94
77153;BME280;66124;51.146;17.072;2023-05-20T00:59:59;101131.81;;;12.63;75.60
77153;BME280;66124;51.146;17.072;2023-05-20T01:02:29;101132.60;;;12.62;75.83
77153;BME280;66124;51.146;17.072;2023-05-20T01:04:59;101131.11;;;12.62;75.99
77153;BME280;66124;51.146;17.072;2023-05-20T01:07:29;101125.34;;;12.60;75.91
77153;BME280;66124;51.146;17.072;2023-05-20T01:09:59;101125.83;;;12.62;75.91
77153;BME280;66124;51.146;17.072;2023-05-20T01:12:33;101134.23;;;12.60;75.85
77153;BME280;66124;51.146;17.072;2023-05-20T01:15:08;101130.80;;;12.60;75.93
77153;BME280;66124;51.146;17.072;2023-05-20T01:17:41;101129.08;;;12.59;75.94
77153;BME280;66124;51.146;17.072;2023-05-20T01:20:13;101127.29;;;12.58;75.74
77153;BME280;66124;51.146;17.072;2023-05-20T01:22:51;101125.25;;;12.57;75.70
77153;BME280;66124;51.146;17.072;2023-05-20T01:25:21;101125.32;;;12.55;75.75
77153;BME280;66124;51.146;17.072;2023-05-20T01:27:52;101127.27;;;12.53;75.91
77153;BME280;66124;51.146;17.072;2023-05-20T01:30:23;101121.09;;;12.52;75.70
77153;BME280;66124;51.146;17.072;2023-05-20T01:32:58;101123.67;;;12.50;75.80
77153;BME280;66124;51.146;17.072;2023-05-20T01:35:30;101127.13;;;12.50;75.89
77153;BME280;66124;51.146;17.072;2023-05-20T01:38:00;101131.67;;;12.49;75.76
77153;BME280;66124;51.146;17.072;2023-05-20T01:40:30;101135.00;;;12.46;75.64
77153;BME280;66124;51.146;17.072;2023-05-20T01:43:01;101139.93;;;12.43;75.77
77153;BME280;66124;51.146;17.072;2023-05-20T01:45:30;101138.84;;;12.41;75.80
77153;BME280;66124;51.146;17.072;2023-05-20T01:48:31;101133.34;;;12.43;75.94
77153;BME280;66124;51.146;17.072;2023-05-20T01:51:01;101132.69;;;12.41;75.61
77153;BME280;66124;51.146;17.072;2023-05-20T01:53:31;101133.55;;;12.40;75.72
77153;BME280;66124;51.146;17.072;2023-05-20T01:56:00;101128.20;;;12.39;75.99
77153;BME280;66124;51.146;17.072;2023-05-20T01:58:29;101130.78;;;12.39;75.96
77153;BME280;66124;51.146;17.072;2023-05-20T02:01:00;101131.67;;;12.39;75.95
77153;BME280;66124;51.146;17.072;2023-05-20T02:03:29;101136.04;;;12.38;75.87
77153;BME280;66124;51.146;17.072;2023-05-20T02:05:59;101136.00;;;12.38;75.86
77153;BME280;66124;51.146;17.072;2023-05-20T02:08:28;101133.02;;;12.38;76.01
77153;BME280;66124;51.146;17.072;2023-05-20T02:10:58;101134.05;;;12.38;75.66
77153;BME280;66124;51.146;17.072;2023-05-20T02:13:27;101134.98;;;12.39;75.85
77153;BME280;66124;51.146;17.072;2023-05-20T02:15:57;101138.65;;;12.38;76.15
77153;BME280;66124;51.146;17.072;2023-05-20T02:18:26;101137.11;;;12.38;75.86
77153;BME280;66124;51.146;17.072;2023-05-20T02:20:55;101139.84;;;12.37;75.66
77153;BME280;66124;51.146;17.072;2023-05-20T02:23:25;101139.12;;;12.37;75.52
77153;BME280;66124;51.146;17.072;2023-05-20T02:25:54;101138.84;;;12.38;75.69
77153;BME280;66124;51.146;17.072;2023-05-20T02:28:23;101143.58;;;12.38;75.67
77153;BME280;66124;51.146;17.072;2023-05-20T02:30:53;101142.09;;;12.39;76.08
77153;BME280;66124;51.146;17.072;2023-05-20T02:33:22;101140.86;;;12.41;75.75
77153;BME280;66124;51.146;17.072;2023-05-20T02:35:51;101141.29;;;12.42;75.71
77153;BME280;66124;51.146;17.072;2023-05-20T02:38:21;101144.59;;;12.42;76.03
77153;BME280;66124;51.146;17.072;2023-05-20T02:40:50;101143.34;;;12.42;75.68
77153;BME280;66124;51.146;17.072;2023-05-20T02:43:20;101140.52;;;12.44;75.83
77153;BME280;66124;51.146;17.072;2023-05-20T02:45:49;101142.16;;;12.45;75.88
77153;BME280;66124;51.146;17.072;2023-05-20T02:48:18;101143.07;;;12.44;76.02
77153;BME280;66124;51.146;17.072;2023-05-20T02:50:48;101140.19;;;12.45;75.97
77153;BME280;66124;51.146;17.072;2023-05-20T02:53:17;101141.11;;;12.45;76.12
77153;BME280;66124;51.146;17.072;2023-05-20T02:55:47;101137.11;;;12.43;76.23
77153;BME280;66124;51.146;17.072;2023-05-20T02:58:16;101131.20;;;12.42;76.11
77153;BME280;66124;51.146;17.072;2023-05-20T03:00:44;101129.95;;;12.42;75.96
77153;BME280;66124;51.146;17.072;2023-05-20T03:08:21;101131.15;;;12.49;75.86
77153;BME280;66124;51.146;17.072;2023-05-20T03:10:51;101133.64;;;12.47;75.86
77153;BME280;66124;51.146;17.072;2023-05-20T03:13:20;101131.59;;;12.48;75.89
77153;BME280;66124;51.146;17.072;2023-05-20T03:15:50;101129.30;;;12.48;76.18
77153;BME280;66124;51.146;17.072;2023-05-20T03:18:19;101124.50;;;12.48;76.03
77153;BME280;66124;51.146;17.072;2023-05-20T03:20:49;101123.66;;;12.49;76.12
77153;BME280;66124;51.146;17.072;2023-05-20T03:23:18;101114.58;;;12.50;75.93
77153;BME280;66124;51.146;17.072;2023-05-20T03:25:48;101118.79;;;12.50;76.17
77153;BME280;66124;51.146;17.072;2023-05-20T03:28:17;101118.52;;;12.51;75.86
77153;BME280;66124;51.146;17.072;2023-05-20T03:30:46;101123.73;;;12.52;75.99
77153;BME280;66124;51.146;17.072;2023-05-20T03:33:16;101122.20;;;12.53;75.91
77153;BME280;66124;51.146;17.072;2023-05-20T03:35:45;101129.11;;;12.54;76.12
77153;BME280;66124;51.146;17.072;2023-05-20T03:38:15;101127.73;;;12.55;76.12
77153;BME280;66124;51.146;17.072;2023-05-20T03:40:44;101130.51;;;12.54;75.96
77153;BME280;66124;51.146;17.072;2023-05-20T03:43:13;101133.25;;;12.53;76.00
77153;BME280;66124;51.146;17.072;2023-05-20T03:45:43;101135.81;;;12.53;76.01
77153;BME280;66124;51.146;17.072;2023-05-20T03:48:12;101136.80;;;12.53;76.33
77153;BME280;66124;51.146;17.072;2023-05-20T03:50:42;101141.23;;;12.55;76.10
77153;BME280;66124;51.146;17.072;2023-05-20T03:53:11;101141.58;;;12.54;76.13
77153;BME280;66124;51.146;17.072;2023-05-20T03:55:40;101144.77;;;12.55;76.38
77153;BME280;66124;51.146;17.072;2023-05-20T03:58:10;101148.60;;;12.55;76.21
77153;BME280;66124;51.146;17.072;2023-05-20T04:00:39;101149.45;;;12.57;76.18
77153;BME280;66124;51.146;17.072;2023-05-20T04:03:09;101149.25;;;12.57;76.37
77153;BME280;66124;51.146;17.072;2023-05-20T04:05:38;101115.31;;;12.39;76.28
77153;BME280;66124;51.146;17.072;2023-05-20T04:08:08;101141.83;;;12.56;76.23
77153;BME280;66124;51.146;17.072;2023-05-20T04:10:37;101144.19;;;12.57;76.40
77153;BME280;66124;51.146;17.072;2023-05-20T04:13:06;101153.83;;;12.57;76.48
77153;BME280;66124;51.146;17.072;2023-05-20T04:15:37;101152.67;;;12.58;76.58
77153;BME280;66124;51.146;17.072;2023-05-20T04:18:06;101157.11;;;12.59;76.05
77153;BME280;66124;51.146;17.072;2023-05-20T04:26:41;101160.20;;;12.70;76.28
77153;BME280;66124;51.146;17.072;2023-05-20T04:29:10;101162.48;;;12.71;76.27
77153;BME280;66124;51.146;17.072;2023-05-20T04:31:40;101163.00;;;12.75;76.20
77153;BME280;66124;51.146;17.072;2023-05-20T04:34:09;101159.38;;;12.77;76.00
77153;BME280;66124;51.146;17.072;2023-05-20T04:36:39;101157.86;;;12.78;76.24
77153;BME280;66124;51.146;17.072;2023-05-20T04:39:10;101151.48;;;12.78;76.15
77153;BME280;66124;51.146;17.072;2023-05-20T04:41:45;101151.44;;;12.80;76.16
77153;BME280;66124;51.146;17.072;2023-05-20T04:44:15;101149.86;;;12.81;75.98
77153;BME280;66124;51.146;17.072;2023-05-20T04:46:45;101149.44;;;12.82;76.29
77153;BME280;66124;51.146;17.072;2023-05-20T04:49:15;101152.35;;;12.84;76.04
77153;BME280;66124;51.146;17.072;2023-05-20T04:51:45;101153.83;;;12.87;75.95
77153;BME280;66124;51.146;17.072;2023-05-20T04:54:14;101155.70;;;12.89;75.93
77153;BME280;66124;51.146;17.072;2023-05-20T04:56:44;101155.92;;;12.92;76.28
77153;BME280;66124;51.146;17.072;2023-05-20T04:59:13;101151.91;;;12.95;76.07
77153;BME280;66124;51.146;17.072;2023-05-20T05:01:42;101151.88;;;12.96;75.85
77153;BME280;66124;51.146;17.072;2023-05-20T05:04:12;101146.37;;;12.97;75.91
77153;BME280;66124;51.146;17.072;2023-05-20T05:06:42;101148.36;;;12.95;75.84
77153;BME280;66124;51.146;17.072;2023-05-20T05:09:11;101144.72;;;12.96;75.88
77153;BME280;66124;51.146;17.072;2023-05-20T05:11:40;101143.17;;;12.97;76.01
77153;BME280;66124;51.146;17.072;2023-05-20T05:14:10;101142.52;;;12.98;76.00
77153;BME280;66124;51.146;17.072;2023-05-20T05:16:39;101142.52;;;12.99;76.09
77153;BME280;66124;51.146;17.072;2023-05-20T05:19:08;101136.85;;;13.01;75.92
77153;BME280;66124;51.146;17.072;2023-05-20T05:21:38;101137.03;;;13.00;76.04
77153;BME280;66124;51.146;17.072;2023-05-20T05:24:08;101139.11;;;13.02;76.08
77153;BME280;66124;51.146;17.072;2023-05-20T05:26:37;101139.16;;;13.02;75.84
77153;BME280;66124;51.146;17.072;2023-05-20T05:29:07;101145.02;;;13.04;75.89
77153;BME280;66124;51.146;17.072;2023-05-20T05:31:36;101148.39;;;13.05;75.75
77153;BME280;66124;51.146;17.072;2023-05-20T05:34:05;101155.75;;;13.07;75.63
77153;BME280;66124;51.146;17.072;2023-05-20T05:36:33;101156.67;;;13.10;75.62
77153;BME280;66124;51.146;17.072;2023-05-20T05:39:01;101161.40;;;13.14;75.44
77153;BME280;66124;51.146;17.072;2023-05-20T05:46:38;101160.27;;;13.16;75.55
77153;BME280;66124;51.146;17.072;2023-05-20T05:49:07;101156.27;;;13.12;75.69
77153;BME280;66124;51.146;17.072;2023-05-20T05:51:37;101158.52;;;13.16;75.67
77153;BME280;66124;51.146;17.072;2023-05-20T05:54:06;101158.75;;;13.17;75.41
77153;BME280;66124;51.146;17.072;2023-05-20T05:56:36;101155.23;;;13.16;75.47
77153;BME280;66124;51.146;17.072;2023-05-20T05:59:06;101157.50;;;13.15;75.28
77153;BME280;66124;51.146;17.072;2023-05-20T06:01:36;101160.80;;;13.17;75.31
77153;BME280;66124;51.146;17.072;2023-05-20T06:04:06;101155.23;;;13.20;75.38
77153;BME280;66124;51.146;17.072;2023-05-20T06:06:35;101159.21;;;13.23;75.15
77153;BME280;66124;51.146;17.072;2023-05-20T06:09:05;101163.09;;;13.25;75.16
77153;BME280;66124;51.146;17.072;2023-05-20T06:11:34;101162.92;;;13.23;75.22
77153;BME280;66124;51.146;17.072;2023-05-20T06:14:04;101164.55;;;13.23;75.11
77153;BME280;66124;51.146;17.072;2023-05-20T06:16:33;101165.90;;;13.23;75.11
77153;BME280;66124;51.146;17.072;2023-05-20T06:19:03;101164.41;;;13.24;75.18
77153;BME280;66124;51.146;17.072;2023-05-20T06:21:32;101171.30;;;13.24;75.18
77153;BME280;66124;51.146;17.072;2023-05-20T06:24:01;101169.48;;;13.23;75.02
77153;BME280;66124;51.146;17.072;2023-05-20T06:26:31;101172.86;;;13.23;75.14
77153;BME280;66124;51.146;17.072;2023-05-20T06:29:01;101171.50;;;13.22;74.93
77153;BME280;66124;51.146;17.072;2023-05-20T06:31:31;101173.23;;;13.19;75.15
77153;BME280;66124;51.146;17.072;2023-05-20T06:34:00;101172.61;;;13.19;75.38
77153;BME280;66124;51.146;17.072;2023-05-20T06:36:30;101164.48;;;13.20;74.90
77153;BME280;66124;51.146;17.072;2023-05-20T06:38:59;101163.52;;;13.23;75.01
77153;BME280;66124;51.146;17.072;2023-05-20T06:41:29;101164.73;;;13.26;74.80
77153;BME280;66124;51.146;17.072;2023-05-20T06:43:59;101164.59;;;13.27;74.92
77153;BME280;66124;51.146;17.072;2023-05-20T06:46:28;101164.39;;;13.27;74.99
77153;BME280;66124;51.146;17.072;2023-05-20T06:48:58;101173.57;;;13.26;74.77
77153;BME280;66124;51.146;17.072;2023-05-20T06:51:27;101173.67;;;13.25;74.95
77153;BME280;66124;51.146;17.072;2023-05-20T06:53:56;101176.06;;;13.26;74.83
77153;BME280;66124;51.146;17.072;2023-05-20T06:56:24;101184.80;;;13.27;74.64
77153;BME280;66124;51.146;17.072;2023-05-20T06:58:53;101183.03;;;13.26;74.73
77153;BME280;66124;51.146;17.072;2023-05-20T07:06:30;101171.51;;;13.35;74.34
77153;BME280;66124;51.146;17.072;2023-05-20T07:08:58;101174.05;;;13.38;74.25
77153;BME280;66124;51.146;17.072;2023-05-20T07:11:25;101174.02;;;13.41;74.22
77153;BME280;66124;51.146;17.072;2023-05-20T07:13:53;101173.27;;;13.46;74.08
77153;BME280;66124;51.146;17.072;2023-05-20T07:16:20;101169.33;;;13.51;73.95
77153;BME280;66124;51.146;17.072;2023-05-20T07:18:48;101166.42;;;13.55;73.88
77153;BME280;66124;51.146;17.072;2023-05-20T07:21:15;101165.02;;;13.57;73.50
77153;BME280;66124;51.146;17.072;2023-05-20T07:23:43;101165.10;;;13.58;73.53
77153;BME280;66124;51.146;17.072;2023-05-20T07:26:09;101165.01;;;13.59;73.65
77153;BME280;66124;51.146;17.072;2023-05-20T07:28:36;101165.72;;;13.60;73.43
77153;BME280;66124;51.146;17.072;2023-05-20T07:36:11;101158.34;;;13.69;73.48
77153;BME280;66124;51.146;17.072;2023-05-20T07:38:40;101163.02;;;13.72;73.15
77153;BME280;66124;51.146;17.072;2023-05-20T07:41:10;101165.35;;;13.76;73.24
77153;BME280;66124;51.146;17.072;2023-05-20T07:43:39;101162.23;;;13.81;73.16
77153;BME280;66124;51.146;17.072;2023-05-20T07:46:09;101167.95;;;13.87;73.32
77153;BME280;66124;51.146;17.072;2023-05-20T07:48:40;101159.70;;;13.94;72.96
77153;BME280;66124;51.146;17.072;2023-05-20T07:51:09;101156.58;;;13.99;72.82
77153;BME280;66124;51.146;17.072;2023-05-20T07:53:39;101156.19;;;14.06;72.79
77153;BME280;66124;51.146;17.072;2023-05-20T07:56:09;101163.55;;;14.14;72.54
77153;BME280;66124;51.146;17.072;2023-05-20T07:58:41;101163.65;;;14.20;72.32
77153;BME280;66124;51.146;17.072;2023-05-20T08:01:12;101161.06;;;14.24;72.28
77153;BME280;66124;51.146;17.072;2023-05-20T08:03:41;101155.42;;;14.25;72.28
77153;BME280;66124;51.146;17.072;2023-05-20T08:06:11;101154.23;;;14.30;72.12
77153;BME280;66124;51.146;17.072;2023-05-20T08:08:41;101149.85;;;14.32;72.01
77153;BME280;66124;51.146;17.072;2023-05-20T08:11:11;101147.52;;;14.35;71.89
77153;BME280;66124;51.146;17.072;2023-05-20T08:13:40;101144.72;;;14.40;71.74
77153;BME280;66124;51.146;17.072;2023-05-20T08:16:10;101140.27;;;14.41;71.70
77153;BME280;66124;51.146;17.072;2023-05-20T08:18:40;101138.85;;;14.49;71.63
77153;BME280;66124;51.146;17.072;2023-05-20T08:21:10;101139.04;;;14.59;71.53
77153;BME280;66124;51.146;17.072;2023-05-20T08:23:40;101130.11;;;14.68;71.33
77153;BME280;66124;51.146;17.072;2023-05-20T08:26:09;101128.59;;;14.77;71.11
77153;BME280;66124;51.146;17.072;2023-05-20T08:28:39;101128.63;;;14.84;70.98
77153;BME280;66124;51.146;17.072;2023-05-20T08:31:09;101123.09;;;14.94;70.72
77153;BME280;66124;51.146;17.072;2023-05-20T08:33:38;101123.69;;;15.06;70.50
77153;BME280;66124;51.146;17.072;2023-05-20T08:36:08;101119.11;;;15.13;69.94
77153;BME280;66124;51.146;17.072;2023-05-20T08:38:37;101118.45;;;15.23;69.94
77153;BME280;66124;51.146;17.072;2023-05-20T08:41:07;101111.07;;;15.32;69.78
77153;BME280;66124;51.146;17.072;2023-05-20T08:43:37;101110.00;;;15.40;69.61
77153;BME280;66124;51.146;17.072;2023-05-20T08:46:05;101111.42;;;15.53;69.13
77153;BME280;66124;51.146;17.072;2023-05-20T08:48:33;101103.61;;;15.61;68.79
77153;BME280;66124;51.146;17.072;2023-05-20T08:56:19;101113.34;;;15.82;68.49
77153;BME280;66124;51.146;17.072;2023-05-20T08:58:49;101113.08;;;15.94;68.07
77153;BME280;66124;51.146;17.072;2023-05-20T09:01:18;101111.23;;;16.03;67.82
77153;BME280;66124;51.146;17.072;2023-05-20T09:03:52;101112.41;;;16.09;67.45
77153;BME280;66124;51.146;17.072;2023-05-20T09:06:21;101108.80;;;16.18;67.42
77153;BME280;66124;51.146;17.072;2023-05-20T09:08:51;101106.95;;;16.30;67.14
77153;BME280;66124;51.146;17.072;2023-05-20T09:11:20;101111.55;;;16.38;66.82
77153;BME280;66124;51.146;17.072;2023-05-20T09:13:51;101109.91;;;16.45;66.57
77153;BME280;66124;51.146;17.072;2023-05-20T09:16:20;101108.71;;;16.49;66.22
77153;BME280;66124;51.146;17.072;2023-05-20T09:18:53;101110.76;;;16.58;66.42
77153;BME280;66124;51.146;17.072;2023-05-20T09:21:27;101110.00;;;16.69;66.07
77153;BME280;66124;51.146;17.072;2023-05-20T09:23:56;101110.99;;;16.79;65.81
77153;BME280;66124;51.146;17.072;2023-05-20T09:26:27;101117.77;;;16.91;65.77
77153;BME280;66124;51.146;17.072;2023-05-20T09:28:57;101115.45;;;17.06;65.44
77153;BME280;66124;51.146;17.072;2023-05-20T09:31:29;101111.35;;;17.20;64.88
77153;BME280;66124;51.146;17.072;2023-05-20T09:33:58;101107.81;;;17.30;64.67
77153;BME280;66124;51.146;17.072;2023-05-20T09:36:29;101100.33;;;17.38;64.12
77153;BME280;66124;51.146;17.072;2023-05-20T09:39:03;101097.63;;;17.44;63.84
77153;BME280;66124;51.146;17.072;2023-05-20T10:01:42;101082.98;;;18.72;61.70
77153;BME280;66124;51.146;17.072;2023-05-20T10:04:14;101076.87;;;18.97;61.17
77153;BME280;66124;51.146;17.072;2023-05-20T10:07:00;101077.21;;;18.95;60.88
77153;BME280;66124;51.146;17.072;2023-05-20T10:09:44;101075.59;;;18.91;60.57
77153;BME280;66124;51.146;17.072;2023-05-20T10:12:25;101072.48;;;18.78;60.48
77153;BME280;66124;51.146;17.072;2023-05-20T10:15:02;101074.50;;;18.65;60.77
77153;BME280;66124;51.146;17.072;2023-05-20T10:17:41;101069.98;;;18.54;60.53
77153;BME280;66124;51.146;17.072;2023-05-20T10:20:14;101078.98;;;18.48;60.73
77153;BME280;66124;51.146;17.072;2023-05-20T10:22:53;101082.80;;;18.43;60.98
77153;BME280;66124;51.146;17.072;2023-05-20T10:25:26;101082.95;;;18.33;61.24
77153;BME280;66124;51.146;17.072;2023-05-20T10:28:08;101081.60;;;18.24;61.38
77153;BME280;66124;51.146;17.072;2023-05-20T10:30:47;101083.85;;;18.10;61.49
77153;BME280;66124;51.146;17.072;2023-05-20T10:33:18;101080.50;;;17.99;61.75
77153;BME280;66124;51.146;17.072;2023-05-20T10:35:50;101071.02;;;17.92;61.96
77153;BME280;66124;51.146;17.072;2023-05-20T10:38:20;101071.30;;;17.86;61.96
77153;BME280;66124;51.146;17.072;2023-05-20T10:40:49;101071.11;;;17.75;62.14
77153;BME280;66124;51.146;17.072;2023-05-20T10:43:26;101064.98;;;17.61;62.57
77153;BME280;66124;51.146;17.072;2023-05-20T10:45:57;101057.55;;;17.57;62.80
77153;BME280;66124;51.146;17.072;2023-05-20T10:48:28;101061.36;;;17.58;62.87
77153;BME280;66124;51.146;17.072;2023-05-20T10:50:59;101057.96;;;17.60;62.90
77153;BME280;66124;51.146;17.072;2023-05-20T10:53:36;101059.07;;;17.64;62.64
77153;BME280;66124;51.146;17.072;2023-05-20T10:56:17;101054.71;;;17.71;62.71
77153;BME280;66124;51.146;17.072;2023-05-20T10:58:46;101052.50;;;17.80;62.81
77153;BME280;66124;51.146;17.072;2023-05-20T11:01:17;101053.64;;;17.91;62.65
77153;BME280;66124;51.146;17.072;2023-05-20T11:03:47;101049.56;;;18.01;62.60
77153;BME280;66124;51.146;17.072;2023-05-20T11:06:17;101043.77;;;18.07;62.58
77153;BME280;66124;51.146;17.072;2023-05-20T11:08:47;101040.23;;;18.08;62.61
77153;BME280;66124;51.146;17.072;2023-05-20T11:11:16;101041.88;;;18.11;62.65
77153;BME280;66124;51.146;17.072;2023-05-20T11:14:30;101043.86;;;18.21;62.57
77153;BME280;66124;51.146;17.072;2023-05-20T11:17:00;101041.02;;;18.26;62.38
77153;BME280;66124;51.146;17.072;2023-05-20T11:19:29;101038.76;;;18.26;62.25
77153;BME280;66124;51.146;17.072;2023-05-20T11:21:59;101034.15;;;18.26;62.24
77153;BME280;66124;51.146;17.072;2023-05-20T11:24:28;101031.55;;;18.25;62.06
77153;BME280;66124;51.146;17.072;2023-05-20T11:26:59;101026.16;;;18.20;62.15
77153;BME280;66124;51.146;17.072;2023-05-20T11:29:29;101023.87;;;18.15;62.21
77153;BME280;66124;51.146;17.072;2023-05-20T11:31:58;101015.95;;;18.08;62.15
77153;BME280;66124;51.146;17.072;2023-05-20T11:34:33;101017.52;;;17.98;62.30
77153;BME280;66124;51.146;17.072;2023-05-20T11:37:05;101020.02;;;17.88;62.52
77153;BME280;66124;51.146;17.072;2023-05-20T11:39:35;101019.94;;;17.83;62.62
77153;BME280;66124;51.146;17.072;2023-05-20T11:42:05;101020.80;;;17.90;63.02
77153;BME280;66124;51.146;17.072;2023-05-20T11:44:34;101025.51;;;18.01;63.15
77153;BME280;66124;51.146;17.072;2023-05-20T11:47:04;101022.64;;;18.14;62.99
77153;BME280;66124;51.146;17.072;2023-05-20T11:49:39;101023.36;;;18.24;62.67
77153;BME280;66124;51.146;17.072;2023-05-20T11:52:10;101029.62;;;18.35;62.55
77153;BME280;66124;51.146;17.072;2023-05-20T11:54:40;101029.30;;;18.43;62.31
77153;BME280;66124;51.146;17.072;2023-05-20T11:57:11;101028.08;;;18.48;62.04
77153;BME280;66124;51.146;17.072;2023-05-20T11:59:41;101030.74;;;18.44;62.12
77153;BME280;66124;51.146;17.072;2023-05-20T12:02:10;101033.33;;;18.39;62.16
77153;BME280;66124;51.146;17.072;2023-05-20T12:04:39;101029.86;;;18.34;62.39
77153;BME280;66124;51.146;17.072;2023-05-20T12:07:09;101028.90;;;18.40;62.42
77153;BME280;66124;51.146;17.072;2023-05-20T12:09:38;101025.15;;;18.50;62.25
77153;BME280;66124;51.146;17.072;2023-05-20T12:12:08;101020.55;;;18.59;62.21
77153;BME280;66124;51.146;17.072;2023-05-20T12:14:37;101018.81;;;18.63;62.03
77153;BME280;66124;51.146;17.072;2023-05-20T12:17:07;101015.39;;;18.64;61.90
77153;BME280;66124;51.146;17.072;2023-05-20T12:19:36;101018.58;;;18.60;61.93
77153;BME280;66124;51.146;17.072;2023-05-20T12:22:06;101010.21;;;18.56;61.97
77153;BME280;66124;51.146;17.072;2023-05-20T12:24:35;101013.97;;;18.49;62.15
77153;BME280;66124;51.146;17.072;2023-05-20T12:27:03;101011.76;;;18.44;62.25
77153;BME280;66124;51.146;17.072;2023-05-20T12:31:44;101008.44;;;18.41;62.56
77153;BME280;66124;51.146;17.072;2023-05-20T12:34:13;101012.99;;;18.41;62.59
77153;BME280;66124;51.146;17.072;2023-05-20T12:36:43;101004.19;;;18.47;62.69
77153;BME280;66124;51.146;17.072;2023-05-20T12:39:12;101001.94;;;18.45;62.46
77153;BME280;66124;51.146;17.072;2023-05-20T12:41:42;100999.68;;;18.46;62.57
77153;BME280;66124;51.146;17.072;2023-05-20T12:44:12;100991.27;;;18.54;62.49
77153;BME280;66124;51.146;17.072;2023-05-20T12:46:42;100988.90;;;18.58;62.41
77153;BME280;66124;51.146;17.072;2023-05-20T12:49:12;100990.67;;;18.61;62.25
77153;BME280;66124;51.146;17.072;2023-05-20T12:51:41;100986.34;;;18.64;62.18
77153;BME280;66124;51.146;17.072;2023-05-20T12:54:11;100982.87;;;18.74;62.27
77153;BME280;66124;51.146;17.072;2023-05-20T12:56:40;100983.08;;;18.89;62.17
77153;BME280;66124;51.146;17.072;2023-05-20T12:59:10;100980.96;;;18.97;61.97
77153;BME280;66124;51.146;17.072;2023-05-20T13:01:40;100979.34;;;19.06;61.80
77153;BME280;66124;51.146;17.072;2023-05-20T13:04:09;100980.52;;;19.09;61.64
77153;BME280;66124;51.146;17.072;2023-05-20T13:06:39;100977.70;;;19.05;61.45
77153;BME280;66124;51.146;17.072;2023-05-20T13:09:08;100975.47;;;19.02;61.40
77153;BME280;66124;51.146;17.072;2023-05-20T13:11:38;100973.45;;;19.02;61.47
77153;BME280;66124;51.146;17.072;2023-05-20T13:14:07;100971.24;;;19.07;61.39
77153;BME280;66124;51.146;17.072;2023-05-20T13:16:37;100975.44;;;19.12;61.35
77153;BME280;66124;51.146;17.072;2023-05-20T13:19:06;100974.63;;;19.21;61.26
77153;BME280;66124;51.146;17.072;2023-05-20T13:21:35;100969.68;;;19.33;60.97
77153;BME280;66124;51.146;17.072;2023-05-20T13:24:06;100967.70;;;19.42;60.89
77153;BME280;66124;51.146;17.072;2023-05-20T13:26:35;100964.52;;;19.52;60.90
77153;BME280;66124;51.146;17.072;2023-05-20T13:29:04;100969.84;;;19.62;60.43
77153;BME280;66124;51.146;17.072;2023-05-20T13:31:34;100963.37;;;19.90;59.90
77153;BME280;66124;51.146;17.072;2023-05-20T13:34:04;100960.78;;;20.27;59.34
77153;BME280;66124;51.146;17.072;2023-05-20T13:36:33;100957.89;;;20.61;58.97
77153;BME280;66124;51.146;17.072;2023-05-20T13:39:03;100957.38;;;20.74;58.13
77153;BME280;66124;51.146;17.072;2023-05-20T13:41:32;100953.14;;;20.70;57.82
77153;BME280;66124;51.146;17.072;2023-05-20T13:44:00;100946.98;;;20.60;57.69
77153;BME280;66124;51.146;17.072;2023-05-20T13:52:08;100942.02;;;20.44;57.71
77153;BME280;66124;51.146;17.072;2023-05-20T13:54:38;100937.41;;;20.48;57.59
77153;BME280;66124;51.146;17.072;2023-05-20T13:57:07;100938.62;;;20.56;57.54
77153;BME280;66124;51.146;17.072;2023-05-20T13:59:37;100937.96;;;20.68;57.44
77153;BME280;66124;51.146;17.072;2023-05-20T14:02:07;100936.95;;;20.91;57.17